This is the latest recevied weather packets stored in our database for station/object EA1ZE. If no packets are shown the sender has not sent any weather packets the latest 1 day(s).
| Time | Temp. | Humidity | Pressure | Rain* | Wind** | Luminosity | Snow |
|---|---|---|---|---|---|---|---|
| 1778013079 | 9.44° C | 77% | 1014.4 hPa | 0 mm | 0.89 m/s, 205° | - | - |
| 1778012193 | 10° C | 76% | 1014.4 hPa | 0 mm | 0 m/s | - | - |
| 1778011296 | 10° C | 73% | 1014.2 hPa | 0 mm | 0 m/s | - | - |
| 1778010404 | 10° C | 74% | 1014 hPa | 0 mm | 0 m/s | - | - |
| 1778008503 | 10° C | 74% | 1013.8 hPa | 0 mm | 0.89 m/s, 218° | - | - |
| 1778007621 | 10.56° C | 75% | 1013.7 hPa | 0 mm | 1.79 m/s, 218° | - | - |
| 1778006726 | 11.11° C | 77% | 1013.8 hPa | 0 mm | 1.34 m/s, 210° | - | - |
| 1778005842 | 11.11° C | 73% | 1013.8 hPa | 0 mm | 2.24 m/s, 248° | - | - |
| 1778004925 | 11.11° C | 71% | 1013.5 hPa | 0 mm | 0.45 m/s, 11° | - | - |
| 1778004034 | 11.67° C | 70% | 1013.3 hPa | 0 mm | 1.79 m/s, 9° | - | - |
| 1778003131 | 11.67° C | 71% | 1013.1 hPa | 0 mm | 2.68 m/s, 5° | - | - |
| 1778002234 | 11.67° C | 70% | 1013.1 hPa | 0 mm | 2.68 m/s, 32° | - | - |
| 1778001330 | 12.22° C | 66% | 1013 hPa | 0 mm | 3.13 m/s, 15° | - | - |
| 1778000425 | 13.33° C | 57% | 1012.8 hPa | 0 mm | 3.58 m/s, 20° | - | - |
| 1777999533 | 13.89° C | 56% | 1012.9 hPa | 0 mm | 2.68 m/s, 321° | - | - |
| 1777998624 | 13.33° C | 57% | 1012.8 hPa | 0 mm | 1.34 m/s, 23° | - | - |
| 1777997721 | 14.44° C | 55% | 1012.8 hPa | 0 mm | 1.34 m/s, 80° | - | - |
| 1777996830 | 15.56° C | 49% | 1012.6 hPa | 0 mm | 2.68 m/s, 325° | - | - |
| 1777995933 | 16.11° C | 46% | 1012.2 hPa | 0 mm | 1.79 m/s, 271° | - | - |
| 1777995026 | 16.11° C | 46% | 1012.3 hPa | 0 mm | 1.79 m/s, 259° | - | - |
| 1777994118 | 16.11° C | 46% | 1012.4 hPa | 0 mm | 3.13 m/s, 252° | - | - |
| 1777993221 | 16.11° C | 46% | 1012.5 hPa | 0 mm | 2.24 m/s, 277° | - | - |
| 1777992315 | 16.11° C | 48% | 1012.6 hPa | 0 mm | 3.13 m/s, 253° | - | - |
| 1777991415 | 16.11° C | 47% | 1012.7 hPa | 0 mm | 2.68 m/s, 205° | - | - |
| 1777990518 | 15.56° C | 46% | 1012.8 hPa | 0 mm | 3.13 m/s, 241° | - | - |
* Rain latest hour (hover to see other rain measurements)
** Current wind speed in m/s (hover to see current wind gust speed)